createdAt,value
2022-08-23T00:00:47.119Z,35.78
2022-08-23T00:02:51.561Z,38.50
2022-08-23T00:05:07.646Z,46.88
2022-08-23T00:07:12.124Z,39.88
2022-08-23T00:09:14.200Z,46.30
2022-08-23T00:11:27.065Z,36.33
2022-08-23T00:13:47.995Z,33.97
2022-08-23T00:15:50.727Z,33.33
2022-08-23T00:17:52.391Z,38.35
2022-08-23T00:19:53.915Z,43.25
2022-08-23T00:21:56.073Z,38.95
2022-08-23T00:23:57.900Z,41.28
2022-08-23T00:26:02.667Z,36.13
2022-08-23T00:28:04.174Z,31.42
2022-08-23T00:30:14.694Z,42.72
2022-08-23T00:32:17.977Z,42.40
2022-08-23T00:34:20.877Z,46.50
2022-08-23T00:36:22.555Z,44.22
2022-08-23T00:38:33.800Z,40.08
2022-08-23T00:40:36.495Z,38.03
2022-08-23T00:42:56.932Z,42.42
2022-08-23T00:45:19.688Z,45.67
2022-08-23T00:47:40.592Z,44.88
2022-08-23T00:49:43.307Z,35.63
2022-08-23T00:51:53.203Z,34.20
2022-08-23T00:53:56.943Z,37.45
2022-08-23T00:56:01.791Z,43.70
2022-08-23T00:58:03.685Z,39.47
2022-08-23T01:00:07.551Z,40.92
2022-08-23T01:02:09.527Z,37.40
2022-08-23T01:04:12.753Z,39.00
2022-08-23T01:06:16.824Z,38.28
2022-08-23T01:08:19.387Z,44.75
2022-08-23T01:10:31.979Z,42.97
2022-08-23T01:12:36.995Z,48.90
2022-08-23T01:14:49.404Z,36.35
2022-08-23T01:16:55.131Z,41.58
2022-08-23T01:18:56.863Z,39.92
2022-08-23T01:21:03.243Z,44.97
2022-08-23T01:23:26.217Z,44.53
2022-08-23T01:25:30.211Z,46.17
2022-08-23T01:27:32.186Z,41.92
2022-08-23T01:31:36.435Z,34.55
2022-08-23T01:33:38.640Z,44.77
2022-08-23T01:35:41.983Z,34.57
2022-08-23T01:37:44.341Z,42.08
2022-08-23T01:39:46.038Z,41.38
2022-08-23T01:41:47.597Z,27.77
2022-08-23T01:43:49.291Z,44.58
2022-08-23T01:45:51.183Z,45.97
2022-08-23T01:47:52.724Z,44.97
2022-08-23T01:49:54.185Z,45.08
2022-08-23T01:51:55.969Z,48.85
2022-08-23T01:53:58.192Z,41.58
2022-08-23T01:56:01.728Z,47.65
2022-08-23T01:58:05.231Z,42.58
2022-08-23T02:00:08.176Z,43.95
2022-08-23T02:02:09.743Z,45.92
2022-08-23T02:04:11.481Z,52.90
2022-08-23T02:06:12.938Z,40.70
2022-08-23T02:08:33.470Z,46.30
2022-08-23T02:10:35.125Z,46.13
2022-08-23T02:12:37.315Z,52.60
2022-08-23T02:14:42.040Z,53.15
2022-08-23T02:17:03.601Z,54.05
2022-08-23T02:19:06.533Z,55.22
2022-08-23T02:21:09.629Z,54.42
2022-08-23T02:23:11.568Z,59.63
2022-08-23T02:25:12.984Z,61.25
2022-08-23T02:27:15.407Z,50.20
2022-08-23T02:29:18.996Z,57.92
2022-08-23T02:33:22.079Z,54.67
2022-08-23T02:35:24.164Z,43.77
2022-08-23T02:37:25.705Z,48.35
2022-08-23T02:39:27.241Z,59.22
2022-08-23T02:41:30.025Z,58.50
2022-08-23T02:43:31.548Z,55.88
2022-08-23T02:45:33.721Z,51.00
2022-08-23T02:47:36.905Z,57.00
2022-08-23T02:49:38.636Z,54.70
2022-08-23T02:51:40.532Z,52.10
2022-08-23T02:53:42.792Z,68.07
2022-08-23T02:55:45.070Z,58.43
2022-08-23T02:57:46.614Z,61.15
2022-08-23T02:59:48.263Z,49.00
2022-08-23T03:01:50.249Z,60.15
2022-08-23T03:03:52.110Z,44.45
2022-08-23T03:05:53.868Z,57.33
2022-08-23T03:07:55.643Z,60.67
2022-08-23T03:09:57.192Z,58.03
2022-08-23T03:11:58.999Z,49.08
2022-08-23T03:14:01.241Z,55.63
2022-08-23T03:16:02.955Z,58.75
2022-08-23T03:18:04.760Z,51.67
2022-08-23T03:20:06.490Z,51.55
2022-08-23T03:22:08.019Z,52.15
2022-08-23T03:24:10.463Z,53.40
2022-08-23T03:26:13.247Z,62.03
2022-08-23T03:28:15.042Z,53.58
2022-08-23T03:30:20.034Z,45.70
2022-08-23T03:32:21.611Z,58.35
2022-08-23T03:34:27.175Z,51.20
2022-08-23T03:36:28.779Z,49.58
2022-08-23T03:38:30.301Z,60.30
2022-08-23T03:40:31.745Z,49.55
2022-08-23T03:42:33.441Z,48.13
2022-08-23T03:44:35.055Z,52.33
2022-08-23T03:46:37.215Z,47.70
2022-08-23T03:48:39.207Z,46.75
2022-08-23T03:50:41.103Z,50.33
2022-08-23T03:52:42.676Z,46.42
2022-08-23T03:54:44.479Z,48.90
2022-08-23T03:56:53.636Z,57.28
2022-08-23T03:58:55.483Z,58.25
2022-08-23T04:00:57.654Z,53.10
2022-08-23T04:02:59.276Z,50.03
2022-08-23T04:05:00.757Z,51.08
2022-08-23T04:07:02.935Z,51.92
2022-08-23T04:09:04.413Z,50.43
2022-08-23T04:11:06.079Z,51.75
2022-08-23T04:13:08.956Z,52.42
2022-08-23T04:15:11.750Z,50.22
2022-08-23T04:17:13.994Z,46.08
2022-08-23T04:19:16.256Z,38.22
2022-08-23T04:21:20.569Z,44.58
2022-08-23T04:23:22.045Z,42.95
2022-08-23T04:25:34.974Z,40.40
2022-08-23T04:27:37.245Z,36.75
2022-08-23T04:29:39.896Z,35.80
2022-08-23T04:31:41.944Z,36.65
2022-08-23T04:33:43.402Z,40.45
2022-08-23T04:35:45.130Z,38.25
2022-08-23T04:37:46.722Z,42.75
2022-08-23T04:40:07.184Z,42.67
2022-08-23T04:42:21.777Z,33.67
2022-08-23T04:44:24.831Z,35.38
2022-08-23T04:46:26.345Z,37.65
2022-08-23T04:48:27.937Z,30.15
2022-08-23T04:50:29.755Z,29.95
2022-08-23T04:52:31.419Z,26.25
2022-08-23T04:54:32.938Z,25.10
2022-08-23T04:56:34.952Z,29.75
2022-08-23T04:58:37.268Z,26.20
2022-08-23T05:00:39.412Z,30.90
2022-08-23T05:02:41.150Z,28.90
2022-08-23T05:04:44.908Z,29.80
2022-08-23T05:06:46.565Z,23.60
2022-08-23T05:08:48.242Z,29.90
2022-08-23T05:10:50.147Z,27.73
2022-08-23T05:12:51.959Z,30.05
2022-08-23T05:14:53.628Z,26.52
2022-08-23T05:16:55.199Z,24.23
2022-08-23T05:18:56.675Z,27.77
2022-08-23T05:20:58.443Z,30.92
2022-08-23T05:23:00.706Z,26.42
2022-08-23T05:25:02.250Z,27.30
2022-08-23T05:27:04.147Z,24.67
2022-08-23T05:29:05.559Z,25.08
2022-08-23T05:31:11.909Z,27.35
2022-08-23T05:33:13.691Z,19.80
2022-08-23T05:35:15.286Z,26.27
2022-08-23T05:37:17.835Z,24.83
2022-08-23T05:41:37.658Z,22.52
2022-08-23T05:43:39.992Z,26.45
2022-08-23T05:45:41.688Z,24.63
2022-08-23T05:47:46.251Z,27.88
2022-08-23T05:49:51.586Z,28.10
2022-08-23T05:51:53.243Z,28.83
2022-08-23T05:53:57.001Z,25.70
2022-08-23T05:56:07.722Z,23.70
2022-08-23T05:58:09.433Z,22.98
2022-08-23T06:00:14.497Z,25.90
2022-08-23T06:02:16.112Z,27.70
2022-08-23T06:04:17.961Z,22.25
2022-08-23T06:06:20.335Z,23.98
2022-08-23T06:08:22.400Z,21.25
2022-08-23T06:10:24.220Z,18.35
2022-08-23T06:12:26.141Z,27.55
2022-08-23T06:14:28.608Z,20.48
2022-08-23T06:16:32.415Z,25.50
2022-08-23T06:18:34.029Z,21.77
2022-08-23T06:20:37.240Z,25.02
2022-08-23T06:22:38.960Z,23.23
2022-08-23T06:24:40.416Z,20.33
2022-08-23T06:26:49.291Z,22.77
2022-08-23T06:28:52.571Z,23.08
2022-08-23T06:30:55.330Z,28.40
2022-08-23T06:32:56.813Z,22.35
2022-08-23T06:35:14.770Z,22.40
2022-08-23T06:37:20.494Z,23.85
2022-08-23T06:39:23.579Z,23.23
2022-08-23T06:41:25.388Z,20.83
2022-08-23T06:43:27.623Z,25.95
2022-08-23T06:45:34.836Z,21.77
2022-08-23T06:47:37.364Z,20.48
2022-08-23T06:49:39.615Z,20.77
2022-08-23T06:51:44.732Z,21.75
2022-08-23T06:53:47.744Z,18.80
2022-08-23T06:55:49.227Z,20.25
2022-08-23T06:57:50.712Z,22.58
2022-08-23T06:59:52.451Z,19.70
2022-08-23T07:01:55.837Z,21.77
2022-08-23T07:03:57.780Z,22.80
2022-08-23T07:06:00.024Z,24.45
2022-08-23T07:08:01.710Z,24.95
2022-08-23T07:10:03.450Z,20.48
2022-08-23T07:14:10.395Z,18.65
2022-08-23T07:16:11.905Z,17.42
2022-08-23T07:18:13.725Z,21.58
2022-08-23T07:20:15.708Z,21.38
2022-08-23T07:22:19.530Z,21.05
2022-08-23T07:24:22.142Z,18.38
2022-08-23T07:28:25.868Z,25.70
2022-08-23T07:30:28.167Z,24.33
2022-08-23T07:32:29.922Z,24.17
2022-08-23T07:34:31.730Z,22.95
2022-08-23T07:36:34.038Z,25.92
2022-08-23T07:38:36.166Z,25.55
2022-08-23T07:42:41.024Z,21.02
2022-08-23T07:44:42.603Z,27.48
2022-08-23T07:46:44.974Z,23.58
2022-08-23T07:48:54.459Z,23.13
2022-08-23T07:50:58.481Z,24.55
2022-08-23T07:53:02.836Z,25.25
2022-08-23T07:55:05.432Z,26.48
2022-08-23T07:59:10.465Z,23.38
2022-08-23T08:01:17.385Z,22.38
2022-08-23T08:03:21.307Z,22.67
2022-08-23T08:05:25.082Z,22.13
2022-08-23T08:07:28.437Z,24.42
2022-08-23T08:09:37.051Z,26.33
2022-08-23T08:11:41.643Z,23.47
2022-08-23T08:13:44.935Z,21.02
2022-08-23T08:15:46.446Z,23.50
2022-08-23T08:17:49.679Z,28.00
2022-08-23T08:21:53.181Z,24.80
2022-08-23T08:23:55.685Z,20.98
2022-08-23T08:26:05.667Z,24.23
2022-08-23T08:28:09.448Z,21.45
2022-08-23T08:30:14.798Z,25.30
2022-08-23T08:32:16.828Z,26.90
2022-08-23T08:34:18.366Z,20.00
2022-08-23T08:36:39.242Z,26.70
2022-08-23T08:38:48.473Z,23.40
2022-08-23T08:41:11.452Z,29.10
2022-08-23T08:43:19.951Z,28.52
2022-08-23T08:45:23.671Z,30.77
2022-08-23T08:47:32.768Z,28.23
2022-08-23T08:49:34.271Z,24.95
2022-08-23T08:51:41.673Z,26.87
2022-08-23T08:53:45.847Z,31.35
2022-08-23T08:55:55.608Z,23.27
2022-08-23T08:58:00.030Z,33.05
2022-08-23T09:00:05.113Z,26.02
2022-08-23T09:02:07.444Z,37.70
2022-08-23T09:04:29.882Z,29.58
2022-08-23T09:06:36.074Z,31.95
2022-08-23T09:08:45.962Z,22.88
2022-08-23T09:10:48.084Z,34.05
2022-08-23T09:12:54.294Z,30.65
2022-08-23T09:14:58.750Z,30.45
2022-08-23T09:17:05.596Z,26.92
2022-08-23T09:19:07.332Z,30.70
2022-08-23T09:21:10.217Z,28.10
2022-08-23T09:23:14.154Z,30.27
2022-08-23T09:25:17.032Z,23.98
2022-08-23T09:27:21.986Z,27.75
2022-08-23T09:29:23.684Z,28.20
2022-08-23T09:31:52.589Z,27.88
2022-08-23T09:33:54.219Z,23.13
2022-08-23T09:36:03.920Z,28.83
2022-08-23T09:38:17.108Z,28.58
2022-08-23T09:40:18.769Z,26.95
2022-08-23T09:42:29.545Z,33.67
2022-08-23T09:44:39.281Z,35.60
2022-08-23T09:46:44.334Z,26.35
2022-08-23T09:48:47.002Z,27.95
2022-08-23T09:50:51.070Z,31.55
2022-08-23T09:53:00.291Z,27.70
2022-08-23T09:55:04.125Z,29.15
2022-08-23T09:57:09.265Z,31.00
2022-08-23T09:59:26.572Z,26.23
2022-08-23T10:01:38.188Z,24.80
2022-08-23T10:03:42.823Z,32.50
2022-08-23T10:05:49.451Z,40.35
2022-08-23T10:08:00.406Z,28.08
2022-08-23T10:10:15.887Z,41.85
2022-08-23T10:12:17.376Z,28.05
2022-08-23T10:14:20.812Z,32.70
2022-08-23T10:16:31.086Z,39.58
2022-08-23T10:18:39.046Z,32.28
2022-08-23T10:20:47.183Z,29.63
2022-08-23T10:23:07.751Z,33.75
2022-08-23T10:25:18.351Z,28.63
2022-08-23T10:27:57.945Z,38.05
2022-08-23T10:30:29.112Z,31.77
2022-08-23T10:32:34.931Z,23.98
2022-08-23T10:34:55.104Z,38.67
2022-08-23T10:37:07.764Z,32.95
2022-08-23T10:39:26.791Z,35.00
2022-08-23T10:41:34.423Z,32.17
2022-08-23T10:43:41.646Z,34.25
2022-08-23T10:45:46.480Z,32.35
2022-08-23T10:47:58.835Z,31.25
2022-08-23T10:50:04.698Z,38.22
2022-08-23T10:52:07.761Z,32.65
2022-08-23T10:54:12.625Z,30.42
2022-08-23T10:56:20.898Z,29.55
2022-08-23T10:58:24.552Z,32.85
2022-08-23T11:00:26.642Z,37.25
2022-08-23T11:02:42.757Z,37.72
2022-08-23T11:04:51.540Z,39.67
2022-08-23T11:06:55.823Z,38.15
2022-08-23T11:08:58.161Z,37.10
2022-08-23T11:11:00.139Z,44.88
2022-08-23T11:13:06.457Z,34.10
2022-08-23T11:15:07.951Z,33.45
2022-08-23T11:17:25.006Z,40.37
2022-08-23T11:19:45.395Z,42.85
2022-08-23T11:21:48.100Z,32.08
2022-08-23T11:23:49.800Z,40.60
2022-08-23T11:25:51.522Z,37.28
2022-08-23T11:28:11.842Z,38.53
2022-08-23T11:30:43.220Z,41.05
2022-08-23T11:32:45.478Z,43.28
2022-08-23T11:37:07.924Z,36.90
2022-08-23T11:39:13.202Z,45.83
2022-08-23T11:41:25.567Z,48.13
2022-08-23T11:43:35.675Z,39.88
2022-08-23T11:45:37.421Z,52.70
2022-08-23T11:47:41.237Z,35.83
2022-08-23T11:50:06.839Z,37.78
2022-08-23T11:52:14.497Z,42.05
2022-08-23T11:54:28.107Z,50.55
2022-08-23T11:56:41.401Z,43.17
2022-08-23T11:58:51.807Z,39.33
2022-08-23T12:01:08.416Z,32.50
2022-08-23T12:03:22.311Z,39.53
2022-08-23T12:05:44.614Z,41.83
2022-08-23T12:08:06.196Z,34.03
2022-08-23T12:10:08.024Z,31.08
2022-08-23T12:12:27.672Z,43.40
2022-08-23T12:14:32.348Z,48.45
2022-08-23T12:16:36.317Z,48.25
2022-08-23T12:18:39.331Z,49.25
2022-08-23T12:20:48.320Z,45.22
2022-08-23T12:23:11.052Z,41.53
2022-08-23T12:25:18.395Z,44.75
2022-08-23T12:27:34.104Z,42.95
2022-08-23T12:29:48.920Z,40.38
2022-08-23T12:31:59.704Z,51.50
2022-08-23T12:34:12.755Z,46.33
2022-08-23T12:36:19.800Z,54.70
2022-08-23T12:38:28.316Z,46.28
2022-08-23T12:40:44.558Z,43.42
2022-08-23T12:42:46.773Z,41.20
2022-08-23T12:44:58.553Z,49.88
2022-08-23T12:47:10.608Z,49.47
2022-08-23T12:49:26.931Z,36.55
2022-08-23T12:51:29.025Z,39.88
2022-08-23T12:53:32.535Z,44.83
2022-08-23T12:55:36.625Z,43.55
2022-08-23T12:57:42.647Z,50.08
2022-08-23T13:00:01.476Z,65.65
2022-08-23T13:02:22.703Z,48.13
2022-08-23T13:04:24.795Z,47.95
2022-08-23T13:06:28.540Z,50.90
2022-08-23T13:08:36.824Z,54.75
2022-08-23T13:10:40.044Z,45.47
2022-08-23T13:12:42.163Z,49.92
2022-08-23T13:14:45.432Z,41.33
2022-08-23T13:16:47.171Z,55.58
2022-08-23T13:21:11.724Z,58.15
2022-08-23T13:23:17.614Z,41.80
2022-08-23T13:25:29.712Z,47.95
2022-08-23T13:27:38.577Z,49.58
2022-08-23T13:29:52.699Z,54.70
2022-08-23T13:32:04.117Z,49.50
2022-08-23T13:34:07.673Z,48.75
2022-08-23T13:36:16.841Z,48.87
2022-08-23T13:38:23.359Z,52.08
2022-08-23T13:40:27.693Z,52.65
2022-08-23T13:42:32.342Z,52.35
2022-08-23T13:44:34.553Z,50.50
2022-08-23T13:46:42.822Z,57.90
2022-08-23T13:48:47.252Z,52.72
2022-08-23T13:50:48.923Z,49.88
2022-08-23T13:53:13.550Z,65.20
2022-08-23T13:55:12.167Z,56.15
2022-08-23T13:57:15.413Z,52.30
2022-08-23T13:59:23.899Z,60.15
2022-08-23T14:01:32.808Z,51.83
2022-08-23T14:03:34.433Z,51.28
2022-08-23T14:05:36.281Z,73.17
2022-08-23T14:07:37.736Z,62.97
2022-08-23T14:09:39.446Z,62.92
2022-08-23T14:11:41.681Z,61.50
2022-08-23T14:13:45.018Z,59.85
2022-08-23T14:18:09.050Z,55.65
2022-08-23T14:22:34.906Z,62.00
2022-08-23T14:24:36.651Z,55.17
2022-08-23T14:26:38.398Z,62.72
2022-08-23T14:28:54.249Z,60.38
2022-08-23T14:30:56.645Z,56.40
2022-08-23T14:32:59.232Z,48.83
2022-08-23T14:35:01.106Z,72.82
2022-08-23T14:39:24.459Z,68.70
2022-08-23T14:41:27.416Z,61.88
2022-08-23T14:43:29.854Z,64.00
2022-08-23T14:45:32.396Z,60.03
2022-08-23T14:51:43.331Z,67.60
2022-08-23T14:53:46.204Z,64.05
2022-08-23T14:55:57.560Z,69.43
2022-08-23T14:58:08.845Z,55.75
2022-08-23T15:00:14.025Z,69.03
2022-08-23T15:02:19.053Z,52.45
2022-08-23T15:04:22.831Z,66.32
2022-08-23T15:06:24.374Z,53.33
2022-08-23T15:08:26.246Z,58.67
2022-08-23T15:15:14.111Z,68.03
2022-08-23T15:17:16.520Z,62.78
2022-08-23T15:19:17.951Z,59.67
2022-08-23T15:21:19.864Z,69.70
2022-08-23T15:23:22.072Z,56.72
2022-08-23T15:25:25.680Z,59.42
2022-08-23T15:27:27.790Z,66.28
2022-08-23T15:29:29.568Z,68.88
2022-08-23T15:31:31.268Z,79.80
2022-08-23T15:33:33.633Z,69.75
2022-08-23T15:35:38.483Z,51.83
2022-08-23T15:37:42.323Z,44.08
2022-08-23T15:39:46.290Z,41.63
2022-08-23T15:41:48.469Z,35.40
2022-08-23T15:43:50.212Z,42.83
2022-08-23T15:45:52.188Z,39.92
2022-08-23T15:47:55.143Z,42.67
2022-08-23T15:49:58.008Z,30.60
2022-08-23T15:52:00.029Z,49.03
2022-08-23T15:54:02.395Z,36.40
2022-08-23T15:56:07.767Z,30.58
2022-08-23T15:58:14.118Z,32.05
2022-08-23T16:00:17.848Z,30.55
2022-08-23T16:02:19.797Z,32.63
2022-08-23T16:04:21.948Z,30.30
2022-08-23T16:06:23.872Z,28.95
2022-08-23T16:08:30.334Z,40.97
2022-08-23T16:10:32.274Z,22.80
2022-08-23T16:12:34.099Z,29.87
2022-08-23T16:14:36.754Z,26.02
2022-08-23T16:16:40.396Z,23.77
2022-08-23T16:18:42.272Z,27.52
2022-08-23T16:20:44.160Z,23.80
2022-08-23T16:22:46.016Z,25.33
2022-08-23T16:24:47.835Z,23.63
2022-08-23T16:26:50.737Z,23.58
2022-08-23T16:28:53.410Z,23.60
2022-08-23T16:30:55.017Z,24.52
2022-08-23T16:32:57.264Z,19.17
2022-08-23T16:34:58.986Z,22.73
2022-08-23T16:37:04.600Z,18.40
2022-08-23T16:39:06.141Z,83.63
2022-08-23T16:41:07.960Z,30.05
2022-08-23T16:43:09.454Z,22.67
2022-08-23T16:45:11.597Z,22.30
2022-08-23T16:47:14.753Z,31.45
2022-08-23T16:49:17.090Z,26.15
2022-08-23T16:51:18.716Z,22.83
2022-08-23T16:53:20.644Z,23.63
2022-08-23T16:55:22.532Z,25.70
2022-08-23T16:57:24.091Z,27.15
2022-08-23T16:59:25.800Z,54.55
2022-08-23T17:01:27.994Z,28.85
2022-08-23T17:03:29.843Z,28.38
2022-08-23T17:05:31.603Z,23.27
2022-08-23T17:07:33.296Z,31.13
2022-08-23T17:09:34.783Z,26.27
2022-08-23T17:11:38.075Z,21.48
2022-08-23T17:13:39.954Z,26.35
2022-08-23T17:15:41.663Z,32.03
2022-08-23T17:17:44.199Z,30.27
2022-08-23T17:21:48.893Z,36.40
2022-08-23T17:23:51.080Z,30.95
2022-08-23T17:25:52.611Z,31.20
2022-08-23T17:27:55.384Z,32.13
2022-08-23T17:31:58.810Z,24.67
2022-08-23T17:34:03.327Z,25.40
2022-08-23T17:36:05.601Z,25.83
2022-08-23T17:38:07.100Z,27.20
2022-08-23T17:40:10.530Z,30.42
2022-08-23T17:42:14.776Z,105.35
2022-08-23T17:44:16.687Z,28.13
2022-08-23T17:46:18.242Z,24.63
2022-08-23T17:48:21.258Z,20.27
2022-08-23T17:50:23.907Z,19.13
2022-08-23T17:52:27.097Z,23.80
2022-08-23T17:54:28.880Z,19.77
2022-08-23T17:56:30.548Z,26.00
2022-08-23T17:58:32.520Z,31.63
2022-08-23T18:02:37.954Z,22.23
2022-08-23T18:04:40.047Z,19.75
2022-08-23T18:06:41.791Z,19.52
2022-08-23T18:08:43.553Z,19.48
2022-08-23T18:10:47.717Z,19.17
2022-08-23T18:12:49.570Z,18.55
2022-08-23T18:14:51.254Z,18.98
2022-08-23T18:16:52.873Z,19.85
2022-08-23T18:18:54.903Z,28.97
2022-08-23T18:20:56.739Z,24.98
2022-08-23T18:22:59.545Z,22.17
2022-08-23T18:25:01.196Z,25.63
2022-08-23T18:27:21.716Z,30.77
2022-08-23T18:29:23.552Z,16.65
2022-08-23T18:31:27.027Z,15.20
2022-08-23T18:33:32.329Z,19.85
2022-08-23T18:35:50.051Z,24.65
2022-08-23T18:37:52.376Z,18.38
2022-08-23T18:39:54.032Z,19.48
2022-08-23T18:41:55.571Z,18.40
2022-08-23T18:43:58.018Z,25.65
2022-08-23T18:45:59.810Z,17.88
2022-08-23T18:48:01.499Z,16.13
2022-08-23T18:50:07.424Z,18.83
2022-08-23T18:52:08.972Z,23.45
2022-08-23T18:54:11.471Z,23.65
2022-08-23T18:56:13.125Z,18.33
2022-08-23T18:58:14.584Z,23.55
2022-08-23T19:00:16.944Z,37.50
2022-08-23T19:02:19.444Z,26.38
2022-08-23T19:04:21.123Z,19.77
2022-08-23T19:06:22.992Z,22.45
2022-08-23T19:08:24.993Z,17.85
2022-08-23T19:10:26.963Z,19.30
2022-08-23T19:12:28.519Z,18.30
2022-08-23T19:14:32.122Z,17.25
2022-08-23T19:16:33.805Z,26.65
2022-08-23T19:18:35.756Z,22.35
2022-08-23T19:20:38.102Z,21.70
2022-08-23T19:22:39.868Z,17.10
2022-08-23T19:24:41.411Z,23.10
2022-08-23T19:26:47.379Z,18.40
2022-08-23T19:28:49.232Z,20.92
2022-08-23T19:30:50.699Z,21.08
2022-08-23T19:32:52.434Z,17.08
2022-08-23T19:34:54.216Z,22.58
2022-08-23T19:37:01.133Z,15.88
2022-08-23T19:39:05.467Z,20.10
2022-08-23T19:41:07.140Z,20.00
2022-08-23T19:43:10.027Z,17.90
2022-08-23T19:45:11.787Z,18.58
2022-08-23T19:47:19.559Z,17.45
2022-08-23T19:49:22.893Z,15.98
2022-08-23T19:51:24.714Z,19.75
2022-08-23T19:53:26.196Z,17.23
2022-08-23T19:55:28.000Z,13.10
2022-08-23T19:57:29.645Z,23.60
2022-08-23T19:59:35.251Z,24.45
2022-08-23T20:01:36.871Z,15.23
2022-08-23T20:03:38.556Z,16.70
2022-08-23T20:05:40.044Z,19.10
2022-08-23T20:07:42.107Z,15.60
2022-08-23T20:09:43.818Z,20.05
2022-08-23T20:11:46.331Z,20.47
2022-08-23T20:13:49.411Z,17.52
2022-08-23T20:15:54.279Z,39.90
2022-08-23T20:17:58.772Z,13.45
2022-08-23T20:20:00.271Z,14.20
2022-08-23T20:22:20.975Z,20.90
2022-08-23T20:24:37.390Z,19.52
2022-08-23T20:26:48.323Z,13.77
2022-08-23T20:28:59.105Z,22.25
2022-08-23T20:31:35.121Z,26.92
2022-08-23T20:33:36.800Z,18.55
2022-08-23T20:35:38.424Z,17.33
2022-08-23T20:37:40.123Z,16.27
2022-08-23T20:39:41.607Z,16.05
2022-08-23T20:41:43.328Z,17.20
2022-08-23T20:43:47.640Z,19.33
2022-08-23T20:45:49.189Z,17.60
2022-08-23T20:47:50.939Z,17.10
2022-08-23T20:49:52.478Z,16.63
2022-08-23T20:51:53.926Z,15.63
2022-08-23T20:53:56.268Z,17.87
2022-08-23T20:55:58.570Z,16.20
2022-08-23T20:58:00.716Z,17.27
2022-08-23T21:00:03.001Z,14.73
2022-08-23T21:02:04.728Z,17.08
2022-08-23T21:04:07.134Z,14.50
2022-08-23T21:06:14.371Z,17.08
2022-08-23T21:08:16.438Z,16.88
2022-08-23T21:10:18.273Z,17.27
2022-08-23T21:12:19.979Z,20.90
2022-08-23T21:14:22.548Z,22.75
2022-08-23T21:16:24.600Z,25.38
2022-08-23T21:18:26.479Z,17.73
2022-08-23T21:20:28.192Z,22.55
2022-08-23T21:22:32.061Z,17.55
2022-08-23T21:24:34.069Z,20.27
2022-08-23T21:26:36.670Z,14.75
2022-08-23T21:28:39.015Z,18.48
2022-08-23T21:30:40.828Z,19.88
2022-08-23T21:32:42.253Z,14.52
2022-08-23T21:34:43.678Z,20.90
2022-08-23T21:36:45.302Z,16.05
2022-08-23T21:38:46.738Z,15.23
2022-08-23T21:40:59.100Z,17.38
2022-08-23T21:43:01.099Z,19.65
2022-08-23T21:45:03.059Z,19.30
2022-08-23T21:47:04.554Z,17.33
2022-08-23T21:49:06.577Z,22.02
2022-08-23T21:51:08.933Z,16.92
2022-08-23T21:53:10.852Z,17.65
2022-08-23T21:55:12.763Z,18.33
2022-08-23T21:57:15.118Z,21.35
2022-08-23T21:59:17.657Z,18.02
2022-08-23T22:01:19.427Z,15.15
2022-08-23T22:03:20.928Z,18.70
2022-08-23T22:05:22.391Z,20.90
2022-08-23T22:07:24.129Z,20.75
2022-08-23T22:09:31.361Z,18.05
2022-08-23T22:11:34.971Z,18.08
2022-08-23T22:13:37.167Z,18.88
2022-08-23T22:15:38.667Z,15.17
2022-08-23T22:17:41.271Z,20.70
2022-08-23T22:19:42.991Z,19.88
2022-08-23T22:21:46.181Z,15.60
2022-08-23T22:23:48.906Z,18.48
2022-08-23T22:25:50.926Z,18.75
2022-08-23T22:27:52.916Z,19.95
2022-08-23T22:29:54.519Z,16.33
2022-08-23T22:31:56.430Z,16.52
2022-08-23T22:33:57.844Z,17.20
2022-08-23T22:36:03.902Z,17.15
2022-08-23T22:38:14.375Z,15.93
2022-08-23T22:40:16.340Z,20.42
2022-08-23T22:42:18.191Z,15.55
2022-08-23T22:44:19.859Z,15.03
2022-08-23T22:46:21.639Z,17.77
2022-08-23T22:48:23.340Z,14.25
2022-08-23T22:50:25.130Z,18.67
2022-08-23T22:52:26.562Z,18.38
2022-08-23T22:54:28.160Z,19.25
2022-08-23T22:56:31.391Z,15.73
2022-08-23T23:00:40.365Z,16.25
2022-08-23T23:02:43.047Z,20.52
2022-08-23T23:04:44.501Z,21.80
2022-08-23T23:06:47.913Z,20.65
2022-08-23T23:08:50.211Z,19.13
2022-08-23T23:10:51.711Z,14.30
2022-08-23T23:12:53.365Z,19.92
2022-08-23T23:14:55.032Z,19.55
2022-08-23T23:16:56.605Z,14.27
2022-08-23T23:19:17.636Z,15.98
2022-08-23T23:21:19.251Z,16.83
2022-08-23T23:23:22.075Z,15.55
2022-08-23T23:27:25.277Z,17.13
2022-08-23T23:29:27.105Z,19.48
2022-08-23T23:31:28.742Z,16.15
2022-08-23T23:33:30.378Z,20.70
2022-08-23T23:35:31.946Z,15.68
2022-08-23T23:37:33.373Z,15.77
2022-08-23T23:39:35.130Z,16.27
2022-08-23T23:41:36.645Z,16.10
2022-08-23T23:43:38.360Z,17.95
2022-08-23T23:45:41.101Z,14.68
2022-08-23T23:49:44.224Z,19.40
2022-08-23T23:51:46.307Z,18.00
2022-08-23T23:53:47.800Z,17.15
2022-08-23T23:55:49.239Z,16.23
2022-08-23T23:57:50.891Z,14.95
2022-08-23T23:59:52.784Z,14.75
